Time;durP1;ratioP1;P1;durP2;ratioP2;P2;SDS_P1;SDS_P2;PMS_P1;PMS_P2;Temp;Humidity;BMP_temperature;BMP_pressure;BME280_temperature;BME280_humidity;BME280_pressure;Samples;Min_cycle;Max_cycle;Signal;HPM_P1;HPM_P2
2021/04/23 00:00:52;;;;;;;2.35;1.60;;;;;;;4.14;47.45;100763.44;5063000;28;20036;-66
2021/04/23 00:03:58;;;;;;;5.20;1.40;;;;;;;4.12;47.46;100767.66;5062868;28;20025;-67
2021/04/23 00:06:25;;;;;;;2.05;1.10;;;;;;;4.10;47.12;100777.03;5051504;28;20033;-67
2021/04/23 00:08:54;;;;;;;5.53;1.13;;;;;;;3.96;47.09;100757.00;5062674;28;20089;-67
2021/04/23 00:11:24;;;;;;;2.20;1.10;;;;;;;4.05;46.78;100770.91;5061234;28;20029;-67
2021/04/23 00:13:50;;;;;;;3.15;1.00;;;;;;;4.03;46.84;100778.59;5062681;28;20313;-67
2021/04/23 00:16:16;;;;;;;1.60;1.02;;;;;;;3.98;46.39;100782.72;5064938;28;20055;-66
2021/04/23 00:18:41;;;;;;;3.15;1.20;;;;;;;3.89;46.39;100785.06;5066792;28;20017;-67
2021/04/23 00:21:10;;;;;;;5.63;1.88;;;;;;;3.87;45.96;100790.19;5066313;28;20175;-66
2021/04/23 00:23:36;;;;;;;1.52;0.88;;;;;;;3.88;45.83;100791.06;5066645;28;20075;-67
2021/04/23 00:26:03;;;;;;;6.28;1.02;;;;;;;3.87;45.75;100790.19;5066177;28;20029;-67
2021/04/23 00:28:29;;;;;;;2.58;0.93;;;;;;;3.86;45.68;100792.72;5066397;28;20389;-69
2021/04/23 00:30:55;;;;;;;1.92;0.93;;;;;;;3.86;45.61;100800.41;5066665;28;20025;-70
2021/04/23 00:33:22;;;;;;;3.78;1.15;;;;;;;3.86;45.81;100795.28;5066864;28;20082;-68
2021/04/23 00:35:49;;;;;;;3.42;1.00;;;;;;;3.80;45.42;100799.41;5066414;28;20108;-67
2021/04/23 00:38:21;;;;;;;1.73;0.90;;;;;;;3.79;45.36;100802.81;5065347;28;20035;-68
2021/04/23 00:41:01;;;;;;;;;;;;;;;3.82;45.18;100812.28;5065501;28;20025;-67
2021/04/23 00:43:31;;;;;;;3.60;0.75;;;;;;;3.78;45.07;100805.34;5098636;28;19909;-68
2021/04/23 00:45:56;;;;;;;4.65;1.00;;;;;;;3.76;45.19;100801.88;5064946;28;20248;-67
2021/04/23 00:48:22;;;;;;;1.92;0.90;;;;;;;3.76;45.15;100812.13;5066331;28;20028;-66
2021/04/23 00:50:52;;;;;;;1.65;1.08;;;;;;;3.73;45.06;100807.81;5065479;28;20049;-65
2021/04/23 00:53:26;;;;;;;3.58;1.70;;;;;;;3.68;44.98;100809.38;5065941;28;20051;-66
2021/04/23 00:55:54;;;;;;;2.85;0.95;;;;;;;3.64;44.89;100818.72;5066096;28;20033;-66
2021/04/23 00:58:26;;;;;;;3.88;1.30;;;;;;;3.60;44.88;100811.75;5066025;28;20029;-68
2021/04/23 01:00:53;;;;;;;;;;;;;;;3.52;44.81;100818.34;5066538;28;20024;-67
2021/04/23 01:03:21;;;;;;;6.20;1.02;;;;;;;3.44;44.97;100826.72;5065871;28;19977;-67
2021/04/23 01:05:49;;;;;;;2.67;1.08;;;;;;;3.40;45.04;100818.91;5065950;28;20470;-67
2021/04/23 01:08:14;;;;;;;1.95;1.20;;;;;;;3.34;45.02;100823.03;5066159;28;20029;-69
2021/04/23 01:10:40;;;;;;;3.17;1.27;;;;;;;3.30;44.96;100825.47;5065935;28;20031;-68
2021/04/23 01:13:06;;;;;;;2.75;1.00;;;;;;;3.24;44.87;100835.56;5065725;28;20027;-69
2021/04/23 01:15:32;;;;;;;2.15;1.27;;;;;;;3.19;44.88;100830.31;5065707;28;20057;-68
2021/04/23 01:17:57;;;;;;;3.35;0.98;;;;;;;3.15;44.67;100833.59;5065611;28;20050;-68
2021/04/23 01:20:24;;;;;;;2.45;1.00;;;;;;;3.13;44.68;100838.66;5065572;28;20032;-68
2021/04/23 01:22:51;;;;;;;3.33;1.00;;;;;;;3.10;44.46;100836.91;5065668;28;20031;-68
2021/04/23 01:25:17;;;;;;;1.90;0.85;;;;;;;3.07;44.58;100826.56;5065529;28;20044;-68
2021/04/23 01:27:44;;;;;;;1.90;1.20;;;;;;;3.06;44.34;100835.09;5064606;28;20468;-66
2021/04/23 01:30:13;;;;;;;3.60;0.90;;;;;;;2.99;44.46;100829.72;5065091;28;20091;-64
2021/04/23 01:32:39;;;;;;;1.65;0.73;;;;;;;2.96;44.36;100839.06;5063785;28;20067;-66
2021/04/23 01:35:08;;;;;;;1.23;0.68;;;;;;;2.96;44.15;100835.63;5064960;28;20104;-65
2021/04/23 01:37:33;;;;;;;2.00;0.85;;;;;;;2.93;44.16;100836.41;5064887;28;20516;-66
2021/04/23 01:39:59;;;;;;;2.17;0.80;;;;;;;2.93;44.28;100838.97;5065053;28;20032;-65
2021/04/23 01:42:24;;;;;;;2.15;0.90;;;;;;;2.89;44.10;100834.56;5064906;28;20028;-66
2021/04/23 01:44:50;;;;;;;1.92;0.88;;;;;;;2.89;43.99;100847.38;5065148;28;20017;-66
2021/04/23 01:47:16;;;;;;;1.85;1.17;;;;;;;2.83;43.97;100839.50;5065050;28;20021;-67
2021/04/23 01:49:42;;;;;;;1.27;0.80;;;;;;;2.81;43.91;100844.59;5064731;28;20045;-67
2021/04/23 01:52:13;;;;;;;2.45;0.95;;;;;;;2.82;43.93;100848.03;5064381;28;20025;-67
2021/04/23 01:54:40;;;;;;;1.90;0.98;;;;;;;2.81;43.90;100854.84;5064679;28;20047;-67
2021/04/23 01:57:06;;;;;;;1.67;0.80;;;;;;;2.82;43.79;100850.59;5064783;28;20041;-66
2021/04/23 01:59:32;;;;;;;5.43;1.00;;;;;;;2.81;43.77;100854.00;5064864;28;20027;-67
2021/04/23 02:01:59;;;;;;;1.45;0.73;;;;;;;2.81;43.82;100859.13;5064618;28;20028;-67
2021/04/23 02:04:26;;;;;;;1.42;1.00;;;;;;;2.81;43.81;100852.28;5064436;28;20042;-68
2021/04/23 02:06:53;;;;;;;1.77;0.90;;;;;;;2.84;43.88;100852.38;5064291;28;20053;-67
2021/04/23 02:09:19;;;;;;;1.00;0.70;;;;;;;2.87;43.75;100858.44;5063123;28;20036;-68
2021/04/23 02:11:46;;;;;;;0.93;0.70;;;;;;;2.92;43.81;100864.56;5064317;28;20102;-67
2021/04/23 02:14:12;;;;;;;1.42;0.60;;;;;;;2.97;43.43;100861.31;5064385;28;20032;-67
2021/04/23 02:16:38;;;;;;;1.63;0.85;;;;;;;2.96;43.64;100868.97;5064552;28;20021;-67
2021/04/23 02:19:06;;;;;;;2.13;0.98;;;;;;;3.00;43.51;100864.81;5064284;28;20051;-67
2021/04/23 02:21:32;;;;;;;3.70;0.95;;;;;;;3.01;43.04;100869.09;5064161;28;20070;-68
2021/04/23 02:23:58;;;;;;;2.58;1.10;;;;;;;2.99;43.29;100868.22;5064719;28;20017;-66
2021/04/23 02:26:23;;;;;;;2.33;0.82;;;;;;;2.96;43.19;100862.16;5064462;28;20036;-67
2021/04/23 02:28:51;;;;;;;2.10;0.80;;;;;;;2.97;42.96;100876.69;5064357;28;20021;-67
2021/04/23 02:31:20;;;;;;;1.55;0.88;;;;;;;2.99;42.88;100881.88;5064207;28;20033;-66
2021/04/23 02:33:47;;;;;;;1.27;0.90;;;;;;;2.94;42.96;100876.63;5064255;28;20051;-67
2021/04/23 02:36:14;;;;;;;4.35;0.80;;;;;;;2.95;42.81;100885.19;5064150;28;20021;-66
2021/04/23 02:38:41;;;;;;;2.75;0.85;;;;;;;2.95;42.70;100886.06;5063645;28;20025;-68
2021/04/23 02:41:06;;;;;;;1.15;0.70;;;;;;;2.90;42.64;100886.72;5063979;28;20025;-68
2021/04/23 02:43:36;;;;;;;3.28;0.85;;;;;;;2.92;42.68;100891.09;5062846;28;20032;-69
2021/04/23 02:46:02;;;;;;;4.40;1.20;;;;;;;2.87;42.63;100890.09;5064076;28;20017;-67
2021/04/23 02:48:30;;;;;;;1.20;0.70;;;;;;;2.80;42.66;100888.13;5064075;28;20082;-67
2021/04/23 02:51:04;;;;;;;1.42;0.80;;;;;;;2.82;42.66;100894.19;5063594;28;20052;-71
2021/04/23 02:53:30;;;;;;;1.27;0.63;;;;;;;2.77;42.73;100899.19;5063972;28;20025;-68
2021/04/23 02:55:57;;;;;;;1.40;0.80;;;;;;;2.75;42.82;100900.81;5063437;28;20032;-69
2021/04/23 02:58:22;;;;;;;1.85;0.75;;;;;;;2.68;42.77;100898.88;5063751;28;20036;-68
2021/04/23 03:00:55;;;;;;;1.88;1.00;;;;;;;2.63;43.01;100898.75;5063653;28;20025;-67
2021/04/23 03:03:22;;;;;;;3.08;1.13;;;;;;;2.59;43.11;100899.44;5064015;28;20044;-69
2021/04/23 03:05:49;;;;;;;1.05;0.95;;;;;;;2.53;43.22;100901.81;5063918;28;20024;-67
2021/04/23 03:08:17;;;;;;;2.53;0.93;;;;;;;2.48;43.34;100912.78;5063432;28;20473;-67
2021/04/23 03:10:46;;;;;;;3.15;1.20;;;;;;;2.37;43.45;100898.75;5063623;28;20036;-67
2021/04/23 03:13:15;;;;;;;2.80;1.00;;;;;;;2.38;43.71;100909.88;5063718;28;20028;-67
2021/04/23 03:15:41;;;;;;;1.05;0.70;;;;;;;2.37;43.47;100913.25;5063707;28;20080;-69
2021/04/23 03:18:09;;;;;;;2.20;0.98;;;;;;;2.23;43.88;100913.66;5063765;28;20440;-68
2021/04/23 03:20:35;;;;;;;2.20;0.93;;;;;;;2.26;43.49;100915.44;5063448;28;20029;-67
2021/04/23 03:23:00;;;;;;;1.80;1.00;;;;;;;2.25;43.71;100921.41;5063295;28;20029;-66
2021/04/23 03:25:28;;;;;;;2.42;0.90;;;;;;;2.19;43.91;100922.06;5063493;28;20021;-68
2021/04/23 03:27:54;;;;;;;3.10;0.93;;;;;;;2.20;44.24;100928.94;5063753;28;20021;-67
2021/04/23 03:30:23;;;;;;;3.47;0.90;;;;;;;2.17;43.83;100922.00;5063570;28;20032;-66
2021/04/23 03:32:49;;;;;;;1.23;0.90;;;;;;;2.13;43.90;100926.97;5063684;28;20025;-68
2021/04/23 03:35:14;;;;;;;2.42;0.82;;;;;;;2.06;44.25;100933.59;5064082;28;20109;-68
2021/04/23 03:37:42;;;;;;;8.30;1.75;;;;;;;1.96;44.76;100930.69;5063332;28;20508;-68
2021/04/23 03:40:08;;;;;;;1.27;0.90;;;;;;;1.92;44.54;100926.25;5063513;28;20025;-66
2021/04/23 03:42:34;;;;;;;2.35;1.10;;;;;;;1.92;44.50;100936.50;5063331;28;20044;-66
2021/04/23 03:44:59;;;;;;;1.98;1.00;;;;;;;1.91;44.71;100933.91;5063337;28;20028;-68
2021/04/23 03:47:25;;;;;;;3.83;1.02;;;;;;;1.89;44.75;100936.41;5063322;28;20025;-68
2021/04/23 03:49:50;;;;;;;1.33;0.80;;;;;;;1.88;45.13;100933.78;5063098;28;20037;-69
2021/04/23 03:52:16;;;;;;;3.20;0.98;;;;;;;1.93;45.10;100928.00;5066826;28;20033;-69
2021/04/23 03:54:42;;;;;;;5.78;1.20;;;;;;;2.02;45.22;100941.97;5067030;28;20032;-69
2021/04/23 03:57:09;;;;;;;3.15;0.90;;;;;;;2.07;45.35;100937.88;5067123;28;20025;-67
2021/04/23 03:59:34;;;;;;;0.95;0.77;;;;;;;2.17;45.15;100942.50;5067874;28;20025;-69
2021/04/23 04:02:00;;;;;;;5.28;1.10;;;;;;;2.26;44.93;100938.50;5067035;28;20044;-67
2021/04/23 04:04:25;;;;;;;2.88;1.05;;;;;;;2.31;45.04;100940.44;5066922;28;20025;-68
2021/04/23 04:06:51;;;;;;;2.90;1.00;;;;;;;2.37;45.11;100947.44;5066520;28;20029;-68
2021/04/23 04:09:18;;;;;;;2.45;1.25;;;;;;;2.42;45.09;100947.59;5065727;28;20024;-67
2021/04/23 04:11:43;;;;;;;2.42;1.02;;;;;;;2.41;45.16;100951.84;5066757;28;20155;-68
2021/04/23 04:14:09;;;;;;;2.78;0.95;;;;;;;2.47;44.96;100959.75;5066743;28;20029;-68
2021/04/23 04:16:34;;;;;;;1.90;0.88;;;;;;;2.52;44.91;100956.47;5066645;28;20025;-68
2021/04/23 04:19:00;;;;;;;2.63;1.00;;;;;;;2.62;44.75;100957.66;5066541;28;20036;-68
2021/04/23 04:21:26;;;;;;;3.03;1.27;;;;;;;2.80;44.83;100962.50;5066128;28;20408;-67
2021/04/23 04:23:51;;;;;;;5.70;2.20;;;;;;;3.20;45.05;100961.22;5066697;28;20537;-68
2021/04/23 04:26:16;;;;;;;3.60;0.93;;;;;;;3.90;45.07;100969.22;5066423;28;20389;-68
2021/04/23 04:28:42;;;;;;;2.03;1.63;;;;;;;4.71;44.45;100961.91;5066587;28;20021;-67
2021/04/23 04:31:07;;;;;;;2.00;0.90;;;;;;;5.63;43.71;100969.97;5066284;28;20036;-66
2021/04/23 04:33:33;;;;;;;2.22;0.77;;;;;;;6.45;42.33;100963.84;5066424;28;20041;-68
2021/04/23 04:35:58;;;;;;;3.70;1.00;;;;;;;7.37;41.47;100971.28;5065854;28;20028;-64
2021/04/23 04:38:24;;;;;;;2.00;0.80;;;;;;;8.27;40.25;100971.50;5066079;28;20032;-67
2021/04/23 04:40:50;;;;;;;4.30;1.10;;;;;;;9.15;39.52;100981.75;5065786;28;20158;-67
2021/04/23 04:43:17;;;;;;;2.03;0.80;;;;;;;9.91;37.78;100973.50;5066019;28;20021;-68
2021/04/23 04:45:43;;;;;;;4.45;1.00;;;;;;;10.50;36.29;100969.31;5066112;28;20032;-66
2021/04/23 04:48:10;;;;;;;2.75;0.60;;;;;;;11.15;35.51;100974.50;5066129;28;20021;-67
2021/04/23 04:50:40;;;;;;;0.90;0.55;;;;;;;11.63;34.62;100972.63;5064298;28;20424;-65
2021/04/23 04:53:08;;;;;;;1.38;0.65;;;;;;;12.16;33.16;100975.03;5065812;28;20025;-65
2021/04/23 04:55:37;;;;;;;5.10;0.80;;;;;;;12.50;31.44;100984.34;5065726;28;20029;-68
2021/04/23 04:58:04;;;;;;;2.90;0.70;;;;;;;12.92;31.63;100980.56;5064427;28;20017;-66
2021/04/23 05:00:30;;;;;;;2.40;0.70;;;;;;;13.42;30.75;100985.28;5065937;28;20027;-67
2021/04/23 05:02:56;;;;;;;3.00;0.73;;;;;;;13.90;30.20;100989.09;5065034;28;20025;-67
2021/04/23 05:05:22;;;;;;;1.13;0.60;;;;;;;14.29;28.78;100989.44;5066138;28;20041;-68
2021/04/23 05:07:48;;;;;;;1.00;0.50;;;;;;;14.72;28.09;100992.25;5065452;28;20054;-66
2021/04/23 05:10:14;;;;;;;2.20;0.82;;;;;;;15.12;27.29;100988.13;5065450;28;20020;-65
2021/04/23 05:12:40;;;;;;;1.33;0.60;;;;;;;15.44;26.94;100986.66;5065692;28;20051;-66
2021/04/23 05:15:07;;;;;;;4.00;1.20;;;;;;;15.63;26.22;100983.69;5065578;28;20017;-65
2021/04/23 05:17:34;;;;;;;6.10;0.82;;;;;;;15.78;25.24;100990.38;5065716;28;20036;-65
2021/04/23 05:19:59;;;;;;;2.58;0.90;;;;;;;15.65;24.64;100994.13;5065599;28;20435;-65
2021/04/23 05:22:25;;;;;;;3.35;0.95;;;;;;;15.94;25.25;100992.66;5064558;28;20507;-67
2021/04/23 05:24:50;;;;;;;2.42;0.85;;;;;;;16.05;24.41;100987.22;5065364;28;20025;-64
2021/04/23 05:27:16;;;;;;;7.30;1.10;;;;;;;16.05;24.60;100993.31;5065397;28;20128;-65
2021/04/23 05:29:41;;;;;;;3.28;1.15;;;;;;;15.94;24.51;100990.88;5065144;28;20525;-65
2021/04/23 05:32:07;;;;;;;2.80;0.80;;;;;;;15.67;23.07;100984.50;5065214;28;20408;-70
2021/04/23 05:34:32;;;;;;;3.42;0.65;;;;;;;15.78;24.30;100993.00;5065080;28;20021;-65
2021/04/23 05:36:59;;;;;;;2.90;0.88;;;;;;;16.07;24.22;100995.91;5064761;28;20025;-66
2021/04/23 05:39:25;;;;;;;2.67;0.95;;;;;;;15.97;22.69;101000.44;5065106;28;20029;-67
2021/04/23 05:41:51;;;;;;;4.28;0.90;;;;;;;15.41;22.96;100999.81;5063673;28;20023;-67
2021/04/23 05:44:17;;;;;;;2.05;0.70;;;;;;;15.31;23.52;101000.88;5065039;28;20044;-67
2021/04/23 05:46:43;;;;;;;2.50;0.68;;;;;;;14.77;22.39;101006.13;5063443;28;20055;-68
2021/04/23 05:49:08;;;;;;;3.10;0.70;;;;;;;14.16;23.44;101006.16;5064977;28;20033;-66
2021/04/23 05:51:34;;;;;;;3.45;0.98;;;;;;;14.02;23.25;101006.34;5064645;28;20047;-66
2021/04/23 05:54:00;;;;;;;2.47;0.70;;;;;;;13.89;23.36;101001.28;5064468;28;20025;-67
2021/04/23 05:56:26;;;;;;;3.55;0.82;;;;;;;13.82;23.80;100999.63;5064501;28;20029;-66
2021/04/23 05:58:53;;;;;;;2.42;0.70;;;;;;;13.98;23.87;101010.72;5064814;28;20036;-66
2021/04/23 06:01:19;;;;;;;2.22;0.70;;;;;;;13.97;22.33;101006.41;5064671;28;20085;-67
2021/04/23 06:03:44;;;;;;;3.88;0.70;;;;;;;13.23;22.91;101012.41;5064569;28;20477;-66
2021/04/23 06:06:09;;;;;;;1.20;0.50;;;;;;;13.26;24.31;101012.38;5064385;28;20051;-66
2021/04/23 06:08:35;;;;;;;1.50;0.52;;;;;;;13.84;23.92;101019.63;5064389;28;20021;-66
2021/04/23 06:11:00;;;;;;;1.58;0.85;;;;;;;14.36;23.01;101022.41;5064233;28;20032;-66
2021/04/23 06:13:26;;;;;;;2.10;0.63;;;;;;;14.65;22.16;101019.41;5064132;28;20025;-67
2021/04/23 06:15:52;;;;;;;0.93;0.50;;;;;;;14.65;21.90;101022.00;5064148;28;20032;-66
2021/04/23 06:18:17;;;;;;;2.38;0.60;;;;;;;14.28;21.42;101018.19;5064139;28;20048;-66
2021/04/23 06:20:45;;;;;;;4.13;0.63;;;;;;;13.93;21.95;101025.59;5064140;28;20021;-66
2021/04/23 06:23:10;;;;;;;3.88;0.57;;;;;;;13.73;21.79;101022.34;5063650;28;20025;-66
2021/04/23 06:25:36;;;;;;;1.75;0.40;;;;;;;13.27;21.80;100968.94;5064265;28;20081;-67
2021/04/23 06:28:04;;;;;;;1.92;0.70;;;;;;;12.48;22.38;101038.19;5063848;28;20040;-68
2021/04/23 06:30:32;;;;;;;2.05;0.52;;;;;;;12.07;23.48;101038.38;5062506;28;20021;-66
2021/04/23 06:32:59;;;;;;;0.93;0.50;;;;;;;12.22;22.69;101054.84;5064114;28;20032;-66
2021/04/23 06:35:29;;;;;;;3.95;0.80;;;;;;;12.02;22.88;101045.34;5064218;28;20441;-67
2021/04/23 06:37:55;;;;;;;1.90;0.40;;;;;;;11.89;23.79;101047.13;5062466;28;20074;-66
2021/04/23 06:40:21;;;;;;;0.93;0.43;;;;;;;12.18;23.63;101042.69;5064056;28;20128;-65
2021/04/23 06:42:47;;;;;;;2.40;0.73;;;;;;;12.42;23.05;101054.72;5063979;28;20025;-66
2021/04/23 06:45:16;;;;;;;0.88;0.50;;;;;;;12.52;23.20;101056.38;5063734;28;20051;-62
2021/04/23 06:47:42;;;;;;;1.23;0.50;;;;;;;12.47;22.14;101049.47;5063506;28;20029;-62
2021/04/23 06:50:09;;;;;;;1.20;0.63;;;;;;;11.92;22.59;101049.72;5063124;28;20212;-64
2021/04/23 06:52:38;;;;;;;2.97;0.70;;;;;;;11.46;23.34;101030.78;5062956;28;20024;-63
2021/04/23 06:55:03;;;;;;;0.60;0.40;;;;;;;11.03;23.65;101029.97;5063589;28;20210;-63
2021/04/23 06:57:29;;;;;;;1.20;0.70;;;;;;;10.68;24.24;101048.09;5063292;28;20025;-62
2021/04/23 06:59:54;;;;;;;2.72;1.08;;;;;;;10.79;24.91;101056.78;5063207;28;20033;-63
2021/04/23 07:02:20;;;;;;;3.42;0.63;;;;;;;11.18;24.65;101054.22;5063057;28;20025;-63
2021/04/23 07:04:45;;;;;;;2.60;0.57;;;;;;;11.38;23.75;101043.78;5063341;28;20489;-63
2021/04/23 07:07:10;;;;;;;0.60;0.50;;;;;;;11.35;23.07;101038.59;5062764;28;20032;-65
2021/04/23 07:09:36;;;;;;;2.33;0.50;;;;;;;10.91;23.38;101063.72;5063413;28;20031;-64
2021/04/23 07:12:02;;;;;;;2.47;0.47;;;;;;;10.84;23.22;101047.28;5063024;28;20036;-66
2021/04/23 07:14:27;;;;;;;0.68;0.40;;;;;;;10.65;23.46;101052.44;5063183;28;20081;-65
2021/04/23 07:16:53;;;;;;;0.63;0.40;;;;;;;10.52;24.04;101061.94;5063088;28;20056;-64
2021/04/23 07:19:18;;;;;;;0.77;0.50;;;;;;;10.65;24.11;101031.66;5062990;28;20094;-64
2021/04/23 07:21:43;;;;;;;1.45;0.52;;;;;;;10.84;24.07;101062.84;5062620;28;20082;-64
2021/04/23 07:24:09;;;;;;;0.77;0.50;;;;;;;10.97;23.71;101047.28;5062863;28;20017;-64
2021/04/23 07:26:34;;;;;;;0.73;0.40;;;;;;;10.96;23.51;101025.63;5065983;28;20035;-64
2021/04/23 07:29:00;;;;;;;0.90;0.52;;;;;;;11.01;23.17;101068.06;5067303;28;20052;-64
2021/04/23 07:31:25;;;;;;;1.48;0.60;;;;;;;11.13;23.24;101064.56;5067404;28;20492;-60
2021/04/23 07:33:51;;;;;;;1.30;0.65;;;;;;;11.46;22.35;101032.50;5066943;28;20581;-63
2021/04/23 07:36:16;;;;;;;1.02;0.50;;;;;;;11.39;22.83;101055.03;5066970;28;20028;-61
2021/04/23 07:38:41;;;;;;;0.68;0.50;;;;;;;11.59;23.38;101065.41;5066677;28;20032;-62
2021/04/23 07:41:07;;;;;;;2.22;0.70;;;;;;;12.25;22.60;101062.63;5066762;28;20147;-62
2021/04/23 07:43:32;;;;;;;1.38;0.60;;;;;;;12.58;21.38;101055.50;5066991;28;20025;-63
2021/04/23 07:45:59;;;;;;;0.60;0.32;;;;;;;12.43;21.25;101034.75;5066849;28;20454;-64
2021/04/23 07:48:27;;;;;;;0.85;0.50;;;;;;;12.22;21.28;101060.88;5066708;28;20051;-63
2021/04/23 07:50:53;;;;;;;1.13;0.60;;;;;;;12.19;21.42;101036.63;5066478;28;20049;-63
2021/04/23 07:53:18;;;;;;;1.83;0.50;;;;;;;12.26;21.20;101059.16;5066440;28;20032;-64
2021/04/23 07:55:44;;;;;;;1.30;0.68;;;;;;;12.23;21.25;101054.84;5066489;28;20025;-63
2021/04/23 07:58:09;;;;;;;1.65;0.50;;;;;;;12.53;20.69;101057.25;5066684;28;20032;-63
2021/04/23 08:00:35;;;;;;;0.90;0.50;;;;;;;12.57;20.34;101058.13;5066286;28;20377;-64
2021/04/23 08:03:00;;;;;;;0.85;0.50;;;;;;;12.49;20.78;101074.63;5066562;28;20040;-62
2021/04/23 08:05:26;;;;;;;0.30;0.30;;;;;;;12.82;20.21;101064.03;5066588;28;20043;-62
2021/04/23 08:07:51;;;;;;;1.15;0.40;;;;;;;12.85;20.28;101076.16;5064605;28;20385;-63
2021/04/23 08:10:19;;;;;;;0.38;0.30;;;;;;;13.14;20.12;101070.72;5066499;28;20017;-62
2021/04/23 08:12:46;;;;;;;1.77;0.40;;;;;;;13.23;19.59;101050.66;5065995;28;20028;-63
2021/04/23 08:15:13;;;;;;;6.72;0.70;;;;;;;13.18;19.99;101073.31;5066299;28;20399;-62
2021/04/23 08:17:39;;;;;;;1.45;0.30;;;;;;;13.36;19.45;101060.09;5066181;28;20021;-62
2021/04/23 08:20:06;;;;;;;0.82;0.40;;;;;;;13.30;19.08;101069.72;5064612;28;20028;-62
2021/04/23 08:22:31;;;;;;;0.73;0.52;;;;;;;13.34;19.92;101074.88;5065671;28;20485;-62
2021/04/23 08:24:57;;;;;;;0.30;0.30;;;;;;;13.86;18.74;101064.84;5066109;28;20032;-63
2021/04/23 08:27:22;;;;;;;2.05;0.38;;;;;;;13.53;18.97;101051.25;5066083;28;20028;-62
2021/04/23 08:29:48;;;;;;;1.33;0.52;;;;;;;13.18;19.19;101055.06;5066126;28;20024;-64
2021/04/23 08:32:13;;;;;;;1.92;0.45;;;;;;;12.85;19.68;101039.66;5065862;28;20048;-64
2021/04/23 08:34:38;;;;;;;2.55;0.50;;;;;;;12.75;19.72;101067.53;5065814;28;20032;-63
2021/04/23 08:37:04;;;;;;;0.70;0.40;;;;;;;12.96;19.73;101066.53;5064330;28;20092;-64
2021/04/23 08:39:29;;;;;;;0.65;0.30;;;;;;;13.08;19.49;101054.28;5066008;28;20029;-63
2021/04/23 08:41:54;;;;;;;0.30;0.30;;;;;;;12.98;19.45;101077.81;5065567;28;20092;-63
2021/04/23 08:44:20;;;;;;;0.70;0.40;;;;;;;13.03;19.66;101062.13;5065890;28;20084;-63
2021/04/23 08:46:46;;;;;;;1.95;0.40;;;;;;;13.12;19.78;101062.06;5066008;28;20032;-63
2021/04/23 08:49:16;;;;;;;1.08;0.47;;;;;;;13.47;19.91;101075.63;5065511;28;20088;-61
2021/04/23 08:51:42;;;;;;;0.75;0.40;;;;;;;13.88;19.10;101055.22;5065238;28;20016;-63
2021/04/23 08:54:08;;;;;;;0.93;0.30;;;;;;;13.75;19.18;101075.38;5065460;28;20016;-63
2021/04/23 08:56:33;;;;;;;0.75;0.43;;;;;;;14.14;19.37;101074.06;5065494;28;20048;-62
2021/04/23 08:58:59;;;;;;;1.80;0.50;;;;;;;15.07;19.42;101071.03;5065697;28;20329;-63
2021/04/23 09:01:26;;;;;;;1.27;0.40;;;;;;;16.23;18.64;101064.50;5065423;28;20029;-63
2021/04/23 09:03:51;;;;;;;1.00;0.30;;;;;;;17.08;16.44;101066.97;5065458;28;20493;-63
2021/04/23 09:06:28;;;;;;;1.00;0.45;;;;;;;17.04;15.96;101062.66;5065251;28;20038;-62
2021/04/23 09:08:56;;;;;;;0.82;0.38;;;;;;;16.82;15.83;101057.94;5065384;28;20017;-64
2021/04/23 09:11:32;;;;;;;1.48;0.50;;;;;;;16.25;16.47;101062.72;5065255;28;20080;-63
2021/04/23 09:14:07;;;;;;;1.80;0.45;;;;;;;15.87;16.96;101062.59;5065408;28;20021;-62
2021/04/23 09:16:46;;;;;;;3.20;0.47;;;;;;;15.65;16.73;101075.25;5065251;28;20028;-62
2021/04/23 09:19:21;;;;;;;1.52;0.40;;;;;;;15.79;17.43;101064.50;5065147;28;20092;-62
2021/04/23 09:21:48;;;;;;;2.97;0.70;;;;;;;16.51;17.09;101073.53;5064925;28;20082;-61
2021/04/23 09:24:19;;;;;;;1.85;0.68;;;;;;;17.37;16.84;101064.47;5065488;28;20027;-63
2021/04/23 09:26:45;;;;;;;2.10;0.60;;;;;;;18.15;16.22;101061.47;5065287;28;20079;-63
2021/04/23 09:29:23;;;;;;;1.52;0.70;;;;;;;18.75;16.15;101061.41;5065221;28;20032;-62
2021/04/23 09:31:48;;;;;;;0.77;0.50;;;;;;;19.31;15.91;101056.09;5065001;28;20108;-63
2021/04/23 09:34:17;;;;;;;3.70;0.80;;;;;;;19.50;15.87;101058.06;5064937;28;20033;-63
2021/04/23 09:36:45;;;;;;;4.20;0.55;;;;;;;19.77;16.33;101052.72;5064775;28;20025;-62
2021/04/23 09:39:25;;;;;;;3.33;0.40;;;;;;;20.23;15.64;101060.69;5063331;28;20021;-62
2021/04/23 09:41:56;;;;;;;2.58;0.50;;;;;;;19.91;15.60;101062.72;5064479;28;20028;-62
2021/04/23 09:44:50;;;;;;;1.20;0.50;;;;;;;19.81;16.18;101060.44;5064875;28;20052;-62
2021/04/23 09:47:18;;;;;;;2.65;0.70;;;;;;;19.95;15.96;101059.06;5063819;28;20062;-62
2021/04/23 09:49:46;;;;;;;2.05;0.47;;;;;;;20.18;16.07;101066.13;5064061;28;20049;-63
2021/04/23 09:52:14;;;;;;;1.42;0.70;;;;;;;20.25;15.71;101064.13;5064274;28;20017;-62
2021/04/23 09:54:45;;;;;;;3.92;0.50;;;;;;;20.37;16.23;101069.81;5064524;28;20025;-67
2021/04/23 09:57:17;;;;;;;2.75;0.52;;;;;;;20.77;15.87;101076.16;5064523;28;20017;-66
2021/04/23 09:59:56;;;;;;;10.35;0.70;;;;;;;20.90;16.04;101070.34;5064519;28;20029;-68
2021/04/23 10:02:30;;;;;;;1.75;0.52;;;;;;;20.57;15.86;101074.31;5064560;28;20029;-70
2021/04/23 10:04:56;;;;;;;2.20;0.40;;;;;;;20.45;16.38;101078.28;5064598;28;20048;-71
2021/04/23 10:07:25;;;;;;;2.65;0.60;;;;;;;20.24;16.36;101065.03;5064358;28;20049;-63
2021/04/23 10:09:54;;;;;;;3.17;1.13;;;;;;;20.39;16.32;101067.97;5064265;28;20082;-62
2021/04/23 10:12:54;;;;;;;3.50;0.45;;;;;;;20.66;16.60;101078.34;5064169;28;20020;-62
2021/04/23 10:15:21;;;;;;;5.35;0.80;;;;;;;20.60;16.51;101065.41;5063983;28;20526;-63
2021/04/23 10:17:50;;;;;;;4.07;0.82;;;;;;;20.38;16.80;101061.88;5064178;28;20025;-64
2021/04/23 10:20:25;;;;;;;4.40;0.98;;;;;;;20.16;16.96;101073.22;5062655;28;20032;-63
2021/04/23 10:22:51;;;;;;;2.78;0.88;;;;;;;20.13;16.75;101077.75;5063477;28;20035;-62
2021/04/23 10:25:17;;;;;;;2.38;0.52;;;;;;;19.83;17.14;101065.66;5063994;28;20112;-63
2021/04/23 10:27:45;;;;;;;1.02;0.45;;;;;;;19.89;16.96;101078.59;5063984;28;20082;-63
2021/04/23 10:30:15;;;;;;;2.45;0.52;;;;;;;20.26;16.91;101071.09;5063892;28;20120;-63
2021/04/23 10:32:40;;;;;;;3.10;0.50;;;;;;;20.68;16.42;101076.53;5063707;28;20092;-62
2021/04/23 10:35:07;;;;;;;2.00;0.52;;;;;;;20.92;16.31;101065.91;5063627;28;20085;-63
2021/04/23 10:37:32;;;;;;;0.93;0.52;;;;;;;20.98;16.14;101063.00;5063207;28;20584;-62
2021/04/23 10:39:58;;;;;;;2.72;0.70;;;;;;;20.49;16.61;101068.47;5063419;28;20049;-63
2021/04/23 10:42:50;;;;;;;2.78;0.75;;;;;;;20.44;16.97;101060.75;5063321;28;20032;-62
2021/04/23 10:45:23;;;;;;;6.72;0.60;;;;;;;20.47;16.70;101073.81;5063602;28;20048;-63
2021/04/23 10:47:51;;;;;;;3.50;0.90;;;;;;;20.52;16.18;101079.78;5063442;28;20029;-63
2021/04/23 10:50:26;;;;;;;3.63;1.13;;;;;;;19.99;17.03;101079.13;5061883;28;20074;-62
2021/04/23 10:53:02;;;;;;;3.05;0.77;;;;;;;19.99;17.23;101080.88;5063132;28;20389;-62
2021/04/23 10:55:43;;;;;;;1.45;0.50;;;;;;;20.20;16.71;101068.72;5063308;28;20027;-62
2021/04/23 10:58:11;;;;;;;2.35;0.60;;;;;;;19.85;16.51;101073.50;5063333;28;20059;-63
2021/04/23 11:00:47;;;;;;;2.60;0.70;;;;;;;19.76;16.76;101074.72;5062829;28;20024;-63
2021/04/23 11:03:22;;;;;;;4.00;0.77;;;;;;;19.53;16.87;101072.00;5063490;28;20364;-62
2021/04/23 11:05:49;;;;;;;2.30;0.60;;;;;;;19.78;16.82;101070.22;5063095;28;20040;-62
2021/04/23 11:08:15;;;;;;;2.53;0.50;;;;;;;20.06;16.45;101066.59;5063140;28;20028;-63
2021/04/23 11:13:33;;;;;;;4.57;0.77;;;;;;;20.29;16.40;101073.63;5063514;28;20021;-63
2021/04/23 11:16:23;;;;;;;1.10;0.50;;;;;;;20.56;16.42;101076.09;5061830;28;20032;-63
2021/04/23 11:19:14;;;;;;;3.88;0.60;;;;;;;20.56;15.75;101067.31;5063458;28;20033;-64
2021/04/23 11:21:40;;;;;;;2.70;0.60;;;;;;;20.23;16.32;101076.50;5062707;28;20036;-63
2021/04/23 11:24:21;;;;;;;2.30;0.60;;;;;;;19.48;16.71;101067.78;5063234;28;20040;-64
2021/04/23 11:27:01;;;;;;;4.43;0.70;;;;;;;17.86;17.70;101081.56;5063137;28;20047;-63
2021/04/23 11:29:32;;;;;;;4.88;0.80;;;;;;;16.13;19.52;101071.72;5063040;28;20051;-62
2021/04/23 11:32:19;;;;;;;6.97;0.90;;;;;;;14.78;21.04;101080.16;5062835;28;20037;-63
2021/04/23 11:34:52;;;;;;;2.53;0.68;;;;;;;13.80;22.29;101079.69;5062935;28;20028;-62